Time;durP1;ratioP1;P1;durP2;ratioP2;P2;SDS_P1;SDS_P2;PMS_P1;PMS_P2;Temp;Humidity;BMP_temperature;BMP_pressure;BME280_temperature;BME280_humidity;BME280_pressure;Samples;Min_cycle;Max_cycle;Signal;HPM_P1;HPM_P2
2022/05/22 00:00:28;;;;;;;6.20;2.85;;;14.10;99.90;;;;;;5020869;28;20041;-63
2022/05/22 00:02:54;;;;;;;8.85;3.15;;;14.20;99.90;;;;;;5020107;28;20107;-64
2022/05/22 00:05:22;;;;;;;7.70;3.67;;;14.20;99.90;;;;;;5020845;28;20042;-64
2022/05/22 00:07:48;;;;;;;6.97;2.97;;;14.30;99.90;;;;;;5020911;28;20028;-64
2022/05/22 00:10:15;;;;;;;7.65;3.25;;;14.50;99.90;;;;;;5021188;28;20041;-64
2022/05/22 00:12:42;;;;;;;7.15;3.55;;;14.40;99.90;;;;;;5020777;28;20289;-64
2022/05/22 00:15:10;;;;;;;5.32;2.90;;;14.40;99.90;;;;;;5020907;28;20048;-64
2022/05/22 00:17:36;;;;;;;7.07;2.90;;;14.40;99.90;;;;;;5020083;28;20085;-64
2022/05/22 00:20:04;;;;;;;6.53;2.63;;;14.40;99.90;;;;;;5020561;28;20038;-64
2022/05/22 00:22:30;;;;;;;7.35;3.08;;;14.60;99.90;;;;;;5020587;28;20373;-64
2022/05/22 00:24:57;;;;;;;8.90;3.10;;;14.60;99.90;;;;;;5020641;28;20040;-65
2022/05/22 00:27:23;;;;;;;6.78;3.15;;;14.30;99.90;;;;;;5020505;28;20328;-64
2022/05/22 00:29:48;;;;;;;7.38;3.40;;;14.10;99.90;;;;;;5020454;28;20052;-64
2022/05/22 00:32:14;;;;;;;6.47;2.83;;;14.10;99.90;;;;;;5020460;28;20029;-64
2022/05/22 00:34:40;;;;;;;8.73;3.08;;;14.00;99.90;;;;;;5019942;28;20046;-64
2022/05/22 00:37:06;;;;;;;5.13;2.67;;;14.00;99.90;;;;;;5020382;28;20309;-64
2022/05/22 00:39:33;;;;;;;7.60;3.35;;;13.90;99.90;;;;;;5019353;28;20049;-64
2022/05/22 00:41:59;;;;;;;7.55;2.72;;;13.90;99.90;;;;;;5020614;28;20030;-64
2022/05/22 00:44:25;;;;;;;5.07;2.80;;;13.90;99.90;;;;;;5020132;28;20036;-64
2022/05/22 00:46:52;;;;;;;7.00;3.40;;;13.80;99.90;;;;;;5020218;28;20117;-65
2022/05/22 00:49:29;;;;;;;5.43;3.08;;;13.80;99.90;;;;;;5019419;28;20108;-64
2022/05/22 00:52:01;;;;;;;8.65;3.28;;;13.80;99.90;;;;;;5002991;28;20026;-65
2022/05/22 00:54:29;;;;;;;8.50;3.10;;;13.70;99.90;;;;;;5019240;28;20057;-64
2022/05/22 00:57:07;;;;;;;7.97;3.10;;;13.60;99.90;;;;;;5020240;28;20330;-64
2022/05/22 00:59:38;;;;;;;6.28;3.30;;;13.60;99.90;;;;;;5019693;28;20050;-64
2022/05/22 01:02:04;;;;;;;8.38;3.03;;;13.70;99.90;;;;;;5019846;28;20037;-64
2022/05/22 01:04:33;;;;;;;8.20;3.10;;;13.60;99.90;;;;;;5018408;28;20081;-64
2022/05/22 01:07:01;;;;;;;8.88;3.50;;;13.50;99.90;;;;;;5020052;28;20297;-64
2022/05/22 01:09:27;;;;;;;7.82;3.42;;;13.30;99.90;;;;;;5018852;28;20045;-64
2022/05/22 01:11:58;;;;;;;6.03;3.10;;;13.50;99.90;;;;;;5020091;28;20021;-64
2022/05/22 01:14:27;;;;;;;5.78;3.33;;;13.50;99.90;;;;;;5018945;28;20041;-64
2022/05/22 01:17:06;;;;;;;7.45;3.70;;;13.40;99.90;;;;;;5019309;28;20306;-65
2022/05/22 01:19:33;;;;;;;7.40;3.25;;;13.30;99.90;;;;;;5018801;28;20022;-64
2022/05/22 01:22:05;;;;;;;7.95;3.45;;;13.30;99.90;;;;;;5019409;28;20432;-64
2022/05/22 01:24:32;;;;;;;6.95;3.00;;;13.30;99.90;;;;;;5018817;28;20018;-64
2022/05/22 01:27:02;;;;;;;8.13;3.28;;;13.20;99.90;;;;;;5019474;28;20026;-64
2022/05/22 01:29:44;;;;;;;6.97;2.97;;;13.20;99.90;;;;;;5018738;28;20077;-64
2022/05/22 01:32:10;;;;;;;6.60;3.40;;;13.20;99.90;;;;;;5018664;28;20306;-64
2022/05/22 01:34:37;;;;;;;8.15;3.30;;;13.30;99.90;;;;;;5018541;28;20091;-66
2022/05/22 01:37:03;;;;;;;7.85;3.72;;;13.40;99.90;;;;;;5018389;28;20334;-64
2022/05/22 01:39:30;;;;;;;7.22;3.35;;;13.30;99.90;;;;;;5018185;28;20038;-64
2022/05/22 01:41:58;;;;;;;6.38;3.47;;;13.20;99.90;;;;;;5002708;28;20030;-65
2022/05/22 01:44:24;;;;;;;6.57;3.20;;;13.20;99.90;;;;;;5001927;28;20473;-64
2022/05/22 01:46:50;;;;;;;4.82;2.88;;;13.20;99.90;;;;;;5018176;28;20038;-65
2022/05/22 01:49:16;;;;;;;6.75;3.65;;;13.20;99.90;;;;;;5019037;28;20030;-65
2022/05/22 01:51:43;;;;;;;6.15;3.45;;;13.30;99.90;;;;;;5002127;28;20125;-65
2022/05/22 01:54:11;;;;;;;6.82;3.55;;;13.30;99.90;;;;;;5002090;28;20052;-64
2022/05/22 01:56:39;;;;;;;6.43;3.38;;;13.30;99.90;;;;;;5018095;28;20349;-65
2022/05/22 01:59:07;;;;;;;7.95;3.60;;;13.30;99.90;;;;;;5018067;28;20127;-65
2022/05/22 02:01:35;;;;;;;7.78;3.63;;;13.20;99.90;;;;;;5002672;28;20467;-64
2022/05/22 02:04:05;;;;;;;8.40;3.47;;;13.20;99.90;;;;;;5018720;28;20057;-64
2022/05/22 02:06:34;;;;;;;6.10;3.40;;;13.20;99.90;;;;;;5017904;28;20283;-64
2022/05/22 02:09:10;;;;;;;6.38;3.25;;;13.30;99.90;;;;;;5018043;28;20420;-64
2022/05/22 02:11:41;;;;;;;6.20;3.60;;;13.20;99.90;;;;;;5018194;28;20432;-64
2022/05/22 02:14:07;;;;;;;6.90;3.63;;;13.10;99.90;;;;;;5017797;28;20030;-64
2022/05/22 02:16:32;;;;;;;6.93;3.40;;;13.10;99.90;;;;;;5016574;28;20057;-64
2022/05/22 02:18:58;;;;;;;6.55;3.45;;;13.10;99.90;;;;;;5018657;28;20036;-64
2022/05/22 02:21:29;;;;;;;5.93;3.40;;;13.20;99.90;;;;;;5017387;28;20045;-63
2022/05/22 02:23:55;;;;;;;6.05;3.50;;;13.10;99.90;;;;;;5017471;28;20054;-64
2022/05/22 02:26:20;;;;;;;7.57;3.65;;;13.10;99.90;;;;;;5018079;28;20057;-64
2022/05/22 02:28:46;;;;;;;7.80;3.67;;;13.20;99.90;;;;;;5001245;28;20089;-64
2022/05/22 02:31:14;;;;;;;8.05;4.13;;;13.20;99.90;;;;;;5017367;28;20037;-64
2022/05/22 02:33:44;;;;;;;6.60;3.70;;;13.10;99.90;;;;;;5017829;28;20114;-64
2022/05/22 02:36:14;;;;;;;6.68;3.10;;;13.20;99.90;;;;;;5017268;28;20052;-64
2022/05/22 02:38:41;;;;;;;6.32;3.00;;;13.10;99.90;;;;;;5017245;28;20041;-64
2022/05/22 02:41:12;;;;;;;5.30;3.05;;;13.00;99.90;;;;;;5017386;28;20453;-64
2022/05/22 02:43:40;;;;;;;6.95;3.20;;;13.00;99.90;;;;;;5017039;28;20026;-64
2022/05/22 02:46:14;;;;;;;7.40;3.92;;;13.10;99.90;;;;;;5000790;28;20521;-64
2022/05/22 02:48:41;;;;;;;5.20;2.70;;;13.10;99.90;;;;;;5000697;28;20034;-66
2022/05/22 02:51:13;;;;;;;9.55;3.45;;;13.20;99.90;;;;;;5017822;28;20044;-64
2022/05/22 02:53:39;;;;;;;8.52;4.05;;;13.30;99.90;;;;;;5017032;28;20374;-64
2022/05/22 02:56:22;;;;;;;5.95;3.50;;;13.20;99.90;;;;;;5017746;28;20056;-64
2022/05/22 02:59:03;;;;;;;6.80;3.28;;;13.00;99.90;;;;;;5017630;28;20041;-64
2022/05/22 03:01:37;;;;;;;5.35;3.10;;;12.90;99.90;;;;;;5017084;28;20119;-65
2022/05/22 03:04:04;;;;;;;5.53;3.50;;;12.90;99.90;;;;;;5016768;28;20040;-64
2022/05/22 03:06:39;;;;;;;4.15;3.38;;;12.80;99.90;;;;;;5017632;28;20297;-64
2022/05/22 03:09:15;;;;;;;6.15;3.60;;;12.80;99.90;;;;;;5016783;28;20339;-64
2022/05/22 03:11:47;;;;;;;4.63;3.65;;;13.00;99.90;;;;;;5016776;28;20038;-65
2022/05/22 03:14:16;;;;;;;8.20;4.00;;;12.90;99.90;;;;;;5016722;28;20038;-64
2022/05/22 03:16:42;;;;;;;6.45;3.70;;;12.80;99.90;;;;;;5016644;28;20120;-64
2022/05/22 03:19:34;;;;;;;9.30;4.20;;;12.70;99.90;;;;;;5014736;28;20432;-64
2022/05/22 03:21:59;;;;;;;6.13;3.75;;;12.60;99.90;;;;;;5016603;28;20040;-64
2022/05/22 03:24:25;;;;;;;9.45;3.83;;;12.60;99.90;;;;;;5016647;28;20026;-65
2022/05/22 03:26:51;;;;;;;8.10;4.07;;;12.60;99.90;;;;;;5016340;28;20034;-64
2022/05/22 03:29:17;;;;;;;8.32;3.58;;;12.60;99.90;;;;;;5017728;28;20096;-65
2022/05/22 03:31:44;;;;;;;6.05;3.60;;;12.60;99.90;;;;;;5000312;28;20038;-64
2022/05/22 03:34:10;;;;;;;7.75;4.22;;;12.50;99.90;;;;;;5016495;28;20120;-65
2022/05/22 03:36:42;;;;;;;5.82;3.97;;;12.50;99.90;;;;;;5001215;28;20291;-64
2022/05/22 03:39:09;;;;;;;6.20;4.15;;;12.50;99.90;;;;;;5016336;28;20038;-65
2022/05/22 03:41:36;;;;;;;6.57;4.57;;;12.50;99.90;;;;;;5016224;28;20405;-64
2022/05/22 03:44:02;;;;;;;9.15;4.50;;;12.50;99.90;;;;;;5016279;28;20034;-65
2022/05/22 03:46:34;;;;;;;7.15;4.50;;;12.50;99.90;;;;;;5016268;28;20033;-64
2022/05/22 03:49:01;;;;;;;7.75;4.45;;;12.40;99.90;;;;;;4983994;28;20026;-64
2022/05/22 03:51:34;;;;;;;8.45;4.43;;;12.50;99.90;;;;;;5016312;28;20108;-64
2022/05/22 03:54:00;;;;;;;6.25;4.30;;;12.70;99.90;;;;;;5016771;28;20034;-64
2022/05/22 03:56:32;;;;;;;8.40;5.03;;;12.70;99.90;;;;;;5016359;28;20034;-64
2022/05/22 03:58:58;;;;;;;7.80;4.60;;;12.70;99.90;;;;;;5015926;28;20310;-64
2022/05/22 04:01:24;;;;;;;6.35;4.20;;;12.70;99.90;;;;;;5016109;28;20029;-65
2022/05/22 04:03:56;;;;;;;6.38;3.95;;;12.50;99.90;;;;;;5016179;28;20338;-65
2022/05/22 04:06:24;;;;;;;9.30;4.57;;;12.40;99.90;;;;;;5015921;28;20026;-64
2022/05/22 04:08:50;;;;;;;10.85;4.75;;;12.40;99.90;;;;;;4999753;28;20393;-64
2022/05/22 04:11:19;;;;;;;6.85;4.47;;;12.40;99.90;;;;;;4999441;28;20165;-65
2022/05/22 04:13:47;;;;;;;8.88;4.70;;;12.30;99.90;;;;;;5015999;28;20049;-65
2022/05/22 04:16:13;;;;;;;8.98;4.30;;;12.40;99.90;;;;;;4999796;28;20034;-65
2022/05/22 04:18:41;;;;;;;10.18;5.10;;;12.40;99.90;;;;;;4999847;28;20034;-65
2022/05/22 04:21:09;;;;;;;6.55;4.35;;;12.40;99.90;;;;;;5015927;28;20072;-65
2022/05/22 04:26:46;;;;;;;7.93;4.90;;;12.40;99.90;;;;;;5016018;28;20346;-64
2022/05/22 04:29:12;;;;;;;6.55;4.45;;;12.50;99.90;;;;;;5017261;28;20041;-64
2022/05/22 04:31:38;;;;;;;11.10;5.60;;;12.50;99.90;;;;;;5015805;28;20286;-64
2022/05/22 04:34:27;;;;;;;8.32;4.82;;;12.70;99.90;;;;;;5016908;28;20038;-65
2022/05/22 04:37:05;;;;;;;7.20;4.43;;;12.70;99.90;;;;;;5015919;28;20034;-64
2022/05/22 04:39:37;;;;;;;7.70;5.35;;;12.60;99.90;;;;;;5017115;28;20416;-64
2022/05/22 04:42:05;;;;;;;12.07;6.22;;;12.70;99.90;;;;;;5019424;28;20402;-64
2022/05/22 04:44:31;;;;;;;9.93;5.65;;;12.70;99.90;;;;;;5019568;28;20036;-65
2022/05/22 04:47:17;;;;;;;9.23;5.25;;;12.80;99.90;;;;;;5020036;28;20101;-64
2022/05/22 04:49:48;;;;;;;10.07;5.45;;;13.00;99.90;;;;;;5019355;28;20050;-65
2022/05/22 04:52:14;;;;;;;9.40;5.90;;;13.00;99.90;;;;;;5019314;28;20034;-66
2022/05/22 04:54:40;;;;;;;8.45;5.30;;;13.00;99.90;;;;;;5019407;28;20026;-65
2022/05/22 04:57:06;;;;;;;9.93;5.85;;;13.20;99.90;;;;;;5019929;28;20034;-64
2022/05/22 04:59:31;;;;;;;10.50;6.30;;;13.20;99.90;;;;;;5019053;28;20141;-65
2022/05/22 05:01:57;;;;;;;11.68;6.28;;;13.30;99.90;;;;;;5002794;28;20030;-65
2022/05/22 05:04:30;;;;;;;9.85;5.80;;;13.30;99.90;;;;;;5019193;28;20034;-65
2022/05/22 05:07:06;;;;;;;7.68;5.90;;;13.20;99.90;;;;;;5019821;28;20038;-64
2022/05/22 05:09:51;;;;;;;10.88;5.78;;;13.20;99.90;;;;;;5019825;28;20306;-64
2022/05/22 05:12:41;;;;;;;11.50;5.82;;;13.40;99.90;;;;;;5018956;28;20053;-64
2022/05/22 05:15:09;;;;;;;8.15;5.68;;;13.40;99.90;;;;;;5019698;28;20065;-64
2022/05/22 05:17:35;;;;;;;7.85;6.10;;;13.40;99.90;;;;;;5018820;28;20045;-64
2022/05/22 05:20:01;;;;;;;11.23;6.75;;;13.50;99.90;;;;;;5002572;28;20034;-65
2022/05/22 05:22:31;;;;;;;12.63;6.30;;;13.60;99.90;;;;;;5002942;28;20026;-64
2022/05/22 05:25:07;;;;;;;10.98;6.22;;;13.70;99.90;;;;;;5019011;28;20029;-64
2022/05/22 05:27:33;;;;;;;8.93;5.97;;;13.80;99.90;;;;;;5018872;28;20033;-64
2022/05/22 05:30:10;;;;;;;10.13;6.35;;;14.00;99.90;;;;;;5003820;28;20123;-64
2022/05/22 05:32:41;;;;;;;11.77;6.80;;;14.10;99.90;;;;;;5003113;28;20461;-64
2022/05/22 05:35:13;;;;;;;10.68;6.47;;;14.20;99.90;;;;;;5018914;28;20029;-64
2022/05/22 05:37:40;;;;;;;8.70;6.28;;;14.30;99.90;;;;;;5002196;28;20033;-64
2022/05/22 05:40:15;;;;;;;10.45;6.18;;;14.30;99.90;;;;;;5018698;28;20030;-64
2022/05/22 05:42:42;;;;;;;11.75;7.05;;;14.40;99.90;;;;;;5019195;28;20046;-64
2022/05/22 05:45:11;;;;;;;12.13;6.80;;;14.50;99.90;;;;;;5018417;28;20192;-64
2022/05/22 05:47:51;;;;;;;9.85;7.07;;;14.60;99.90;;;;;;5003830;28;20070;-65
2022/05/22 05:50:42;;;;;;;11.05;7.03;;;14.70;99.90;;;;;;5016146;28;20042;-64
2022/05/22 05:53:31;;;;;;;11.00;6.63;;;14.70;99.90;;;;;;5018901;28;20042;-64
2022/05/22 05:56:13;;;;;;;11.93;7.03;;;14.80;99.90;;;;;;5019257;28;20052;-65
2022/05/22 05:59:07;;;;;;;12.27;6.57;;;15.00;99.90;;;;;;5018158;28;20065;-64
2022/05/22 06:01:37;;;;;;;15.32;7.35;;;15.10;99.90;;;;;;5017837;28;20034;-64
2022/05/22 06:04:04;;;;;;;8.63;6.60;;;15.30;99.90;;;;;;5018006;28;20053;-65
2022/05/22 06:06:31;;;;;;;9.98;6.45;;;15.40;99.90;;;;;;5018605;28;20026;-64
2022/05/22 06:08:58;;;;;;;10.35;6.22;;;15.50;99.90;;;;;;5017782;28;20295;-65
2022/05/22 06:11:40;;;;;;;11.80;6.40;;;15.60;99.90;;;;;;5017736;28;20120;-64
2022/05/22 06:14:32;;;;;;;8.25;5.85;;;15.70;99.90;;;;;;4995836;28;20053;-65
2022/05/22 06:16:59;;;;;;;8.77;6.10;;;15.80;99.90;;;;;;5017563;28;20050;-65
2022/05/22 06:22:17;;;;;;;9.75;5.35;;;15.70;99.90;;;;;;5017793;28;20042;-64
2022/05/22 06:24:45;;;;;;;13.30;5.30;;;15.60;99.90;;;;;;5001828;28;20029;-65
2022/05/22 06:27:38;;;;;;;11.10;5.00;;;15.60;99.90;;;;;;5017606;28;20033;-64
2022/05/22 06:30:33;;;;;;;11.23;4.95;;;15.60;99.90;;;;;;5018098;28;20045;-63
2022/05/22 06:33:17;;;;;;;8.05;5.22;;;15.40;99.90;;;;;;5018305;28;20092;-64
2022/05/22 06:36:15;;;;;;;8.77;5.22;;;15.40;99.90;;;;;;5009027;28;20034;-64
2022/05/22 06:42:10;;;;;;;9.75;5.20;;;15.70;99.90;;;;;;5017276;28;20053;-63
2022/05/22 06:44:39;;;;;;;9.52;3.92;;;15.80;99.90;;;;;;5018120;28;20357;-64
2022/05/22 06:47:35;;;;;;;10.57;4.13;;;15.80;99.90;;;;;;4987034;28;20042;-62
2022/05/22 06:50:23;;;;;;;9.27;3.80;;;15.90;99.90;;;;;;5018788;28;20449;-62
2022/05/22 06:53:14;;;;;;;8.55;3.83;;;15.70;99.90;;;;;;5017072;28;20325;-63
2022/05/22 06:56:06;;;;;;;6.38;3.65;;;15.80;99.90;;;;;;4994834;28;20042;-63
2022/05/22 06:58:37;;;;;;;8.70;3.63;;;15.80;99.90;;;;;;5018142;28;20059;-63
2022/05/22 07:01:15;;;;;;;8.80;3.03;;;15.90;99.90;;;;;;5017693;28;20433;-63
2022/05/22 07:03:51;;;;;;;8.60;3.47;;;16.10;99.90;;;;;;5001742;28;20108;-62
2022/05/22 07:06:36;;;;;;;6.88;3.45;;;16.20;99.90;;;;;;5017710;28;20175;-63
2022/05/22 07:09:15;;;;;;;7.13;2.78;;;16.20;99.90;;;;;;5017750;28;20105;-63
2022/05/22 07:12:00;;;;;;;9.40;3.60;;;16.20;99.90;;;;;;5017919;28;20072;-64
2022/05/22 07:14:38;;;;;;;7.30;3.03;;;16.50;99.90;;;;;;5016876;28;20034;-65
2022/05/22 07:17:21;;;;;;;6.40;3.03;;;16.70;99.90;;;;;;5016798;28;20041;-63
2022/05/22 07:20:10;;;;;;;5.35;2.63;;;16.90;99.90;;;;;;4989953;28;20046;-66
2022/05/22 07:22:39;;;;;;;7.88;3.20;;;17.20;99.90;;;;;;5017070;28;20053;-65
2022/05/22 07:25:31;;;;;;;7.95;3.15;;;17.30;99.90;;;;;;5016775;28;20029;-60
2022/05/22 07:28:14;;;;;;;7.93;3.22;;;17.30;99.90;;;;;;5016606;28;20088;-62
2022/05/22 07:31:03;;;;;;;6.40;3.08;;;17.40;99.90;;;;;;5017235;28;20041;-63
2022/05/22 07:33:48;;;;;;;8.25;3.33;;;17.40;99.90;;;;;;5016753;28;20056;-62
2022/05/22 07:36:24;;;;;;;8.38;3.40;;;17.40;99.90;;;;;;5016545;28;20390;-63
2022/05/22 07:39:03;;;;;;;6.68;2.30;;;17.70;99.90;;;;;;5017329;28;20116;-63
2022/05/22 07:41:59;;;;;;;7.03;2.60;;;17.80;99.90;;;;;;4992042;28;20368;-63
2022/05/22 07:44:49;;;;;;;7.43;2.60;;;17.80;99.90;;;;;;5009317;28;20058;-65
2022/05/22 07:47:38;;;;;;;8.00;2.40;;;17.60;99.90;;;;;;5011543;28;20042;-63
2022/05/22 07:50:42;;;;;;;7.15;2.10;;;17.70;99.90;;;;;;5012561;28;20042;-62
2022/05/22 07:53:33;;;;;;;8.98;3.03;;;17.70;99.90;;;;;;5016279;28;20030;-60
2022/05/22 07:56:13;;;;;;;9.55;3.10;;;18.00;99.90;;;;;;5016268;28;20056;-62
2022/05/22 07:59:01;;;;;;;8.48;2.83;;;17.90;99.90;;;;;;4989219;28;20050;-62
2022/05/22 08:01:53;;;;;;;11.10;3.90;;;18.10;99.90;;;;;;5013264;28;20049;-62
2022/05/22 08:04:32;;;;;;;7.88;3.15;;;18.10;99.90;;;;;;5016222;28;20037;-62
2022/05/22 08:07:16;;;;;;;7.97;3.13;;;18.10;99.90;;;;;;5017190;28;20126;-63
2022/05/22 08:10:10;;;;;;;7.82;3.42;;;18.30;99.90;;;;;;5014814;28;20034;-63
2022/05/22 08:12:39;;;;;;;8.73;3.92;;;18.40;99.90;;;;;;5015827;28;20026;-63
2022/05/22 08:15:30;;;;;;;10.70;4.43;;;18.70;99.90;;;;;;5018814;28;20037;-63
2022/05/22 08:18:02;;;;;;;9.77;4.35;;;19.00;99.90;;;;;;5019989;28;20034;-63
2022/05/22 08:20:34;;;;;;;6.75;3.58;;;19.00;99.90;;;;;;5020167;28;20025;-64
2022/05/22 08:23:15;;;;;;;11.95;4.15;;;18.90;99.90;;;;;;5019880;28;20034;-63
2022/05/22 08:25:48;;;;;;;8.43;3.50;;;19.20;99.90;;;;;;5020702;28;20120;-63
2022/05/22 08:28:16;;;;;;;8.38;3.92;;;19.30;99.90;;;;;;5020857;28;20425;-63
2022/05/22 08:30:42;;;;;;;10.07;4.10;;;19.30;99.90;;;;;;5020189;28;20033;-63
2022/05/22 08:33:09;;;;;;;7.00;3.58;;;19.00;99.90;;;;;;5003598;28;20427;-62
2022/05/22 08:35:39;;;;;;;14.60;5.05;;;18.90;99.90;;;;;;5020555;28;20038;-62
2022/05/22 08:38:05;;;;;;;9.55;4.00;;;19.10;99.90;;;;;;5020349;28;20034;-63
2022/05/22 08:40:58;;;;;;;9.55;4.05;;;19.00;99.90;;;;;;5020310;28;20056;-62
2022/05/22 08:43:31;;;;;;;;;;;19.20;99.90;;;;;;5020817;28;20041;-63
2022/05/22 08:46:04;;;;;;;;;;;19.40;99.90;;;;;;5020979;28;19913;-62
2022/05/22 08:48:37;;;;;;;9.43;3.97;;;19.50;99.90;;;;;;5020248;28;19921;-63
2022/05/22 08:51:10;;;;;;;11.77;4.50;;;19.50;99.90;;;;;;5020268;28;20104;-63
2022/05/22 08:53:52;;;;;;;11.85;4.65;;;19.50;99.90;;;;;;5020067;28;20044;-64
2022/05/22 08:59:39;;;;;;;7.55;4.47;;;19.00;99.90;;;;;;5019280;28;20680;-63
2022/05/22 09:02:23;;;;;;;9.85;4.05;;;18.80;99.90;;;;;;5016347;28;20068;-64
2022/05/22 09:04:56;;;;;;;9.18;4.32;;;18.70;99.90;;;;;;5020013;28;20034;-63
2022/05/22 09:07:30;;;;;;;8.98;4.03;;;18.70;99.90;;;;;;5019854;28;20117;-64
2022/05/22 09:10:05;;;;;;;8.75;3.90;;;19.10;99.90;;;;;;5019224;28;20305;-64
2022/05/22 09:12:36;;;;;;;8.85;4.45;;;19.30;99.90;;;;;;5019675;28;20030;-64
2022/05/22 09:15:15;;;;;;;9.25;4.22;;;19.40;99.90;;;;;;5020299;28;20113;-64
2022/05/22 09:17:53;;;;;;;7.10;3.53;;;19.50;99.90;;;;;;5019115;28;20160;-64
2022/05/22 09:20:37;;;;;;;9.90;4.20;;;19.90;99.90;;;;;;5019681;28;20034;-64
2022/05/22 09:23:42;;;;;;;10.05;4.28;;;20.30;99.90;;;;;;5019539;28;20038;-62
2022/05/22 09:26:10;;;;;;;11.85;4.45;;;20.50;99.90;;;;;;5018772;28;20038;-64
2022/05/22 09:28:48;;;;;;;11.38;4.85;;;19.80;99.90;;;;;;5019417;28;20397;-62
2022/05/22 09:31:20;;;;;;;10.32;4.70;;;19.70;99.90;;;;;;5019343;28;20037;-62
2022/05/22 09:33:49;;;;;;;;;;;19.10;99.90;;;;;;5019138;28;20282;-63
2022/05/22 09:36:40;;;;;;;8.18;4.10;;;19.00;99.90;;;;;;5019364;28;19906;-63
2022/05/22 09:39:23;;;;;;;13.20;4.60;;;19.10;99.90;;;;;;5002228;28;20111;-61
2022/05/22 09:42:00;;;;;;;8.93;3.90;;;19.10;99.90;;;;;;5019198;28;20034;-63
2022/05/22 09:44:58;;;;;;;8.75;4.10;;;19.10;99.90;;;;;;5019173;28;20033;-62
2022/05/22 09:48:07;;;;;;;10.65;4.32;;;18.90;99.90;;;;;;5019337;28;20092;-62
2022/05/22 09:50:54;;;;;;;10.68;3.65;;;19.00;99.90;;;;;;5011212;28;20042;-63
2022/05/22 09:53:38;;;;;;;8.38;4.07;;;19.40;99.90;;;;;;5019064;28;20033;-62
2022/05/22 09:56:20;;;;;;;9.07;3.83;;;19.40;99.90;;;;;;5018249;28;20406;-63
2022/05/22 09:58:46;;;;;;;9.15;3.63;;;19.60;99.90;;;;;;5018974;28;20030;-63
2022/05/22 10:01:31;;;;;;;11.23;4.25;;;19.90;99.90;;;;;;5018677;28;20121;-63
2022/05/22 10:04:09;;;;;;;10.60;4.03;;;20.10;99.90;;;;;;5018265;28;20034;-63
2022/05/22 10:06:41;;;;;;;8.85;3.60;;;20.10;99.90;;;;;;5019200;28;20053;-66
2022/05/22 10:09:34;;;;;;;7.35;3.10;;;20.50;99.90;;;;;;5018788;28;20022;-64
2022/05/22 10:12:23;;;;;;;7.05;2.83;;;20.60;99.90;;;;;;5018701;28;20042;-64
2022/05/22 10:14:58;;;;;;;6.63;2.65;;;20.70;99.90;;;;;;5017976;28;20084;-66
2022/05/22 10:18:00;;;;;;;11.02;3.55;;;20.90;99.90;;;;;;5018504;28;20338;-63
2022/05/22 10:20:32;;;;;;;6.77;2.77;;;20.80;99.90;;;;;;5017562;28;20083;-63
2022/05/22 10:23:32;;;;;;;9.18;3.05;;;21.00;99.90;;;;;;5018281;28;20462;-62
2022/05/22 10:26:23;;;;;;;8.57;2.88;;;21.20;99.90;;;;;;5018302;28;20034;-63
2022/05/22 10:29:05;;;;;;;7.45;2.80;;;21.40;99.90;;;;;;5018303;28;20437;-65
2022/05/22 10:31:50;;;;;;;8.80;3.05;;;21.50;99.90;;;;;;5018095;28;20049;-64
2022/05/22 10:34:50;;;;;;;7.97;3.13;;;21.70;99.90;;;;;;5018186;28;20100;-65
2022/05/22 10:37:38;;;;;;;11.60;3.40;;;21.80;99.90;;;;;;5017262;28;20058;-63
2022/05/22 10:40:07;;;;;;;8.43;3.42;;;22.00;99.90;;;;;;4998569;28;20148;-64
2022/05/22 10:42:45;;;;;;;6.82;2.85;;;21.70;99.90;;;;;;5017988;28;20034;-64
2022/05/22 10:45:32;;;;;;;6.90;2.78;;;21.70;99.90;;;;;;5018648;28;20030;-66
2022/05/22 10:48:10;;;;;;;7.32;2.75;;;21.60;99.90;;;;;;5017990;28;20022;-63
2022/05/22 10:50:37;;;;;;;7.68;2.45;;;21.80;99.90;;;;;;5017986;28;20124;-64
2022/05/22 10:53:03;;;;;;;9.05;2.55;;;21.50;99.90;;;;;;5017405;28;20026;-66
2022/05/22 10:55:42;;;;;;;5.97;2.10;;;21.90;99.90;;;;;;5017954;28;20359;-66
2022/05/22 10:58:24;;;;;;;7.10;2.28;;;22.00;99.90;;;;;;5017893;28;20105;-65
2022/05/22 11:01:04;;;;;;;4.47;2.15;;;22.80;99.90;;;;;;5017569;28;20042;-64
2022/05/22 11:03:34;;;;;;;5.53;2.60;;;23.30;99.90;;;;;;5018040;28;20025;-65
2022/05/22 11:06:15;;;;;;;6.18;2.38;;;25.20;99.90;;;;;;5018088;28;20113;-64
2022/05/22 11:08:46;;;;;;;7.45;3.15;;;26.20;99.90;;;;;;5017118;28;20029;-62
2022/05/22 11:11:15;;;;;;;5.43;3.20;;;25.00;99.90;;;;;;5018257;28;20044;-63
2022/05/22 11:13:41;;;;;;;7.22;2.60;;;24.50;99.90;;;;;;5017909;28;20026;-62
2022/05/22 11:16:17;;;;;;;8.55;2.65;;;26.00;99.90;;;;;;5018032;28;20030;-62
2022/05/22 11:18:43;;;;;;;5.28;1.92;;;26.60;99.90;;;;;;5017508;28;20382;-65
2022/05/22 11:21:31;;;;;;;10.73;2.70;;;27.60;99.90;;;;;;5017393;28;20034;-64
2022/05/22 11:24:21;;;;;;;6.63;2.60;;;28.20;97.90;;;;;;5017333;28;20483;-62
2022/05/22 11:26:49;;;;;;;7.88;2.25;;;29.60;93.50;;;;;;5017261;28;20064;-64
2022/05/22 11:29:57;;;;;;;7.38;2.50;;;30.40;91.90;;;;;;5017190;28;20030;-62
2022/05/22 11:32:28;;;;;;;6.82;2.40;;;31.30;84.10;;;;;;5017440;28;20417;-65
2022/05/22 11:35:32;;;;;;;3.92;1.92;;;29.10;88.80;;;;;;5017242;28;20033;-63
2022/05/22 11:38:17;;;;;;;7.13;2.63;;;30.20;87.00;;;;;;5016614;28;20120;-63
2022/05/22 11:41:01;;;;;;;5.70;1.77;;;30.40;82.70;;;;;;5017316;28;20071;-62
2022/05/22 11:44:01;;;;;;;7.15;2.30;;;31.00;82.30;;;;;;5017251;28;20061;-64
2022/05/22 11:46:45;;;;;;;5.10;2.15;;;30.50;80.80;;;;;;5016427;28;20465;-65
2022/05/22 11:49:23;;;;;;;4.78;1.85;;;30.90;79.40;;;;;;5017196;28;20294;-65
2022/05/22 11:52:07;;;;;;;7.47;2.38;;;31.30;76.10;;;;;;5016455;28;20048;-63
2022/05/22 11:55:12;;;;;;;3.63;1.85;;;29.10;72.70;;;;;;5017148;28;20033;-64
2022/05/22 11:57:45;;;;;;;4.65;1.40;;;29.70;77.20;;;;;;5017026;28;20025;-63
2022/05/22 12:00:19;;;;;;;4.63;2.00;;;30.10;74.70;;;;;;5016851;28;20050;-63
2022/05/22 12:02:58;;;;;;;7.38;2.60;;;31.00;72.80;;;;;;5017304;28;20401;-63
2022/05/22 12:05:56;;;;;;;5.25;1.88;;;30.90;73.40;;;;;;5017052;28;20030;-65
2022/05/22 12:09:09;;;;;;;5.68;2.30;;;32.50;72.60;;;;;;5016985;28;20061;-62
2022/05/22 12:11:55;;;;;;;6.50;3.55;;;32.80;66.20;;;;;;4984386;28;20424;-61
2022/05/22 12:14:39;;;;;;;5.20;1.88;;;33.50;66.90;;;;;;5016985;28;20018;-62
2022/05/22 12:17:19;;;;;;;5.00;2.10;;;31.60;67.00;;;;;;5016920;28;20030;-61
2022/05/22 12:20:29;;;;;;;5.45;2.05;;;30.10;71.00;;;;;;5016940;28;20271;-62
2022/05/22 12:23:12;;;;;;;6.18;1.80;;;30.40;72.60;;;;;;4976581;28;20047;-61
2022/05/22 12:25:50;;;;;;;7.40;2.40;;;31.00;71.80;;;;;;5013609;28;20402;-62
2022/05/22 12:28:25;;;;;;;5.97;2.03;;;30.80;70.30;;;;;;5016186;28;20029;-63
2022/05/22 12:30:54;;;;;;;5.07;2.03;;;32.50;69.90;;;;;;5016634;28;20045;-62
2022/05/22 12:33:20;;;;;;;5.85;2.10;;;32.30;67.70;;;;;;5016994;28;20080;-63
2022/05/22 12:35:46;;;;;;;5.22;2.13;;;33.00;67.50;;;;;;5015933;28;20062;-63
2022/05/22 12:38:14;;;;;;;4.22;2.13;;;31.40;67.10;;;;;;5016648;28;20310;-63
2022/05/22 12:41:15;;;;;;;7.78;2.17;;;31.80;66.10;;;;;;5016473;28;20038;-62
2022/05/22 12:43:41;;;;;;;5.40;2.20;;;32.10;65.00;;;;;;4983152;28;20056;-62
2022/05/22 12:46:10;;;;;;;6.90;2.35;;;32.20;64.70;;;;;;5017198;28;20026;-63
2022/05/22 12:48:40;;;;;;;7.57;1.60;;;33.50;63.50;;;;;;5015899;28;20022;-63
2022/05/22 12:51:14;;;;;;;5.00;1.50;;;33.60;60.50;;;;;;5016617;28;20045;-62
2022/05/22 12:53:44;;;;;;;5.03;1.88;;;33.70;60.00;;;;;;5016201;28;20026;-63
2022/05/22 12:56:24;;;;;;;5.53;2.05;;;34.30;58.10;;;;;;5016650;28;20033;-62
2022/05/22 12:58:56;;;;;;;5.30;1.80;;;36.20;58.10;;;;;;4999557;28;20109;-63
2022/05/22 13:01:40;;;;;;;7.82;1.92;;;37.40;56.30;;;;;;5018638;28;20081;-64
2022/05/22 13:04:15;;;;;;;6.35;2.00;;;34.90;55.20;;;;;;5020332;28;20033;-63
2022/05/22 13:06:54;;;;;;;4.57;1.77;;;34.90;54.20;;;;;;5020161;28;20317;-62
2022/05/22 13:09:22;;;;;;;4.18;2.08;;;34.90;54.70;;;;;;5003920;28;20041;-63
2022/05/22 13:12:13;;;;;;;7.30;2.60;;;33.40;57.00;;;;;;5019885;28;20049;-62
2022/05/22 13:14:54;;;;;;;4.10;1.75;;;33.20;58.90;;;;;;5019081;28;20030;-63
2022/05/22 13:17:37;;;;;;;5.80;1.80;;;34.40;57.30;;;;;;5020051;28;20475;-63
2022/05/22 13:20:20;;;;;;;4.95;2.00;;;34.50;57.10;;;;;;5019810;28;20095;-63
2022/05/22 13:22:46;;;;;;;5.30;2.17;;;34.00;56.70;;;;;;5019708;28;20308;-62
2022/05/22 13:25:30;;;;;;;6.13;1.90;;;34.20;57.00;;;;;;5019673;28;20349;-62
2022/05/22 13:27:56;;;;;;;3.90;1.58;;;35.30;55.80;;;;;;5019689;28;20386;-63
2022/05/22 13:30:24;;;;;;;3.60;1.55;;;37.80;52.60;;;;;;5019574;28;20042;-63
2022/05/22 13:33:14;;;;;;;3.63;1.95;;;39.50;52.30;;;;;;5018647;28;20053;-62
2022/05/22 13:35:53;;;;;;;4.78;2.10;;;39.00;47.90;;;;;;5019472;28;20041;-61
2022/05/22 13:38:21;;;;;;;3.30;1.40;;;38.20;48.00;;;;;;5019658;28;20062;-62
2022/05/22 13:40:52;;;;;;;4.65;1.60;;;38.50;47.40;;;;;;5019217;28;20021;-61